createdAt,value
2023-04-29T00:00:14.160Z,3.74
2023-04-29T00:02:41.766Z,3.33
2023-04-29T00:05:09.233Z,4.51
2023-04-29T00:07:36.668Z,4.90
2023-04-29T00:10:03.808Z,3.67
2023-04-29T00:12:32.045Z,4.44
2023-04-29T00:15:00.787Z,4.95
2023-04-29T00:17:28.020Z,3.97
2023-04-29T00:19:54.919Z,3.67
2023-04-29T00:22:22.754Z,2.42
2023-04-29T00:24:49.487Z,4.04
2023-04-29T00:27:17.857Z,3.80
2023-04-29T00:29:45.153Z,3.67
2023-04-29T00:32:12.253Z,4.63
2023-04-29T00:34:39.076Z,2.96
2023-04-29T00:37:05.862Z,4.03
2023-04-29T00:39:32.816Z,3.72
2023-04-29T00:41:59.984Z,2.31
2023-04-29T00:44:27.001Z,3.50
2023-04-29T00:46:54.346Z,2.15
2023-04-29T00:49:21.272Z,2.96
2023-04-29T00:51:48.472Z,3.70
2023-04-29T00:54:15.987Z,4.17
2023-04-29T00:56:45.703Z,3.58
2023-04-29T00:59:13.197Z,3.87
2023-04-29T01:01:40.018Z,3.16
2023-04-29T01:04:08.270Z,3.95
2023-04-29T01:06:53.292Z,2.66
2023-04-29T01:09:41.580Z,3.90
2023-04-29T01:12:32.923Z,3.37
2023-04-29T01:15:12.699Z,4.80
2023-04-29T01:17:52.475Z,4.84
2023-04-29T01:20:21.136Z,4.33
2023-04-29T01:22:48.874Z,3.96
2023-04-29T01:25:16.431Z,3.70
2023-04-29T01:28:07.734Z,4.08
2023-04-29T01:30:46.650Z,4.16
2023-04-29T01:33:30.864Z,3.79
2023-04-29T01:36:14.231Z,3.19
2023-04-29T01:38:52.920Z,3.81
2023-04-29T01:41:24.793Z,4.25
2023-04-29T01:43:58.850Z,2.82
2023-04-29T01:46:27.925Z,3.49
2023-04-29T01:48:57.752Z,3.76
2023-04-29T01:51:24.664Z,3.26
2023-04-29T01:53:51.675Z,4.31
2023-04-29T01:56:18.772Z,3.80
2023-04-29T01:59:05.765Z,5.61
2023-04-29T02:02:05.561Z,3.64
2023-04-29T02:04:34.754Z,4.04
2023-04-29T02:07:04.054Z,4.30
2023-04-29T02:09:31.234Z,4.76
2023-04-29T02:12:06.601Z,5.15
2023-04-29T02:14:36.787Z,4.90
2023-04-29T02:17:05.144Z,5.06
2023-04-29T02:19:32.131Z,5.04
2023-04-29T02:21:59.231Z,2.84
2023-04-29T02:24:26.360Z,3.70
2023-04-29T02:26:53.534Z,3.77
2023-04-29T02:29:20.844Z,4.03
2023-04-29T02:31:48.596Z,2.65
2023-04-29T02:34:16.311Z,4.38
2023-04-29T02:36:43.172Z,3.42
2023-04-29T02:39:09.983Z,3.09
2023-04-29T02:41:36.937Z,2.98
2023-04-29T02:44:04.134Z,3.73
2023-04-29T02:46:33.511Z,2.18
2023-04-29T02:49:01.005Z,2.70
2023-04-29T02:51:28.339Z,2.79
2023-04-29T02:53:55.490Z,3.90
2023-04-29T02:56:23.378Z,1.90
2023-04-29T02:58:50.454Z,3.26
2023-04-29T03:01:17.281Z,3.86
2023-04-29T03:03:44.741Z,3.28
2023-04-29T03:06:11.965Z,3.67
2023-04-29T03:08:38.700Z,3.39
2023-04-29T03:11:05.768Z,2.93
2023-04-29T03:13:32.666Z,3.64
2023-04-29T03:16:00.671Z,3.89
2023-04-29T03:18:28.459Z,4.01
2023-04-29T03:20:55.359Z,4.01
2023-04-29T03:23:22.517Z,3.88
2023-04-29T03:25:50.038Z,3.11
2023-04-29T03:28:16.791Z,3.46
2023-04-29T03:30:43.632Z,2.25
2023-04-29T03:33:10.530Z,3.49
2023-04-29T03:35:37.480Z,3.54
2023-04-29T03:38:22.848Z,3.59
2023-04-29T03:40:49.728Z,2.33
2023-04-29T03:43:17.802Z,2.58
2023-04-29T03:45:44.898Z,3.35
2023-04-29T03:48:16.949Z,4.11
2023-04-29T03:50:44.181Z,3.33
2023-04-29T03:53:12.099Z,3.26
2023-04-29T03:55:39.119Z,3.10
2023-04-29T03:58:06.285Z,3.11
2023-04-29T04:00:33.963Z,3.58
2023-04-29T04:03:05.862Z,4.01
2023-04-29T04:05:35.002Z,4.07
2023-04-29T04:08:07.792Z,4.51
2023-04-29T04:10:50.044Z,3.09
2023-04-29T04:13:30.350Z,3.11
2023-04-29T04:15:57.602Z,4.25
2023-04-29T04:18:24.666Z,4.70
2023-04-29T04:20:51.721Z,5.24
2023-04-29T04:23:18.472Z,4.37
2023-04-29T04:25:49.090Z,4.38
2023-04-29T04:28:35.948Z,3.47
2023-04-29T04:31:09.662Z,5.39
2023-04-29T04:33:36.602Z,4.56
2023-04-29T04:36:03.376Z,4.43
2023-04-29T04:38:30.465Z,4.63
2023-04-29T04:40:57.324Z,4.08
2023-04-29T04:43:35.704Z,4.84
2023-04-29T04:46:14.422Z,5.71
2023-04-29T04:49:01.634Z,3.62
2023-04-29T04:51:29.543Z,4.67
2023-04-29T04:53:56.336Z,4.61
2023-04-29T04:56:24.778Z,4.91
2023-04-29T04:58:51.791Z,5.70
2023-04-29T05:01:18.686Z,4.88
2023-04-29T05:03:46.016Z,4.89
2023-04-29T05:06:13.002Z,4.21
2023-04-29T05:08:42.474Z,5.74
2023-04-29T05:11:20.619Z,5.32
2023-04-29T05:14:01.218Z,4.70
2023-04-29T05:16:28.034Z,5.15
2023-04-29T05:18:54.956Z,6.02
2023-04-29T05:21:24.970Z,5.60
2023-04-29T05:23:52.069Z,5.94
2023-04-29T05:26:18.893Z,6.87
2023-04-29T05:28:46.134Z,6.66
2023-04-29T05:31:13.927Z,6.89
2023-04-29T05:33:40.877Z,7.47
2023-04-29T05:36:08.359Z,7.46
2023-04-29T05:38:35.251Z,8.01
2023-04-29T05:41:08.523Z,7.81
2023-04-29T05:43:47.118Z,8.26
2023-04-29T05:46:15.244Z,7.99
2023-04-29T05:48:42.142Z,8.75
2023-04-29T05:51:10.614Z,8.25
2023-04-29T05:53:39.777Z,8.41
2023-04-29T05:56:08.802Z,8.31
2023-04-29T05:58:37.177Z,7.33
2023-04-29T06:01:04.388Z,8.86
2023-04-29T06:03:31.799Z,9.67
2023-04-29T06:06:17.920Z,8.75
2023-04-29T06:09:08.600Z,8.86
2023-04-29T06:11:41.637Z,9.44
2023-04-29T06:14:08.323Z,9.95
2023-04-29T06:16:35.673Z,10.16
2023-04-29T06:19:02.917Z,9.62
2023-04-29T06:21:29.586Z,10.87
2023-04-29T06:23:56.707Z,8.89
2023-04-29T06:26:24.016Z,9.75
2023-04-29T06:28:50.953Z,8.94
2023-04-29T06:31:18.174Z,9.49
2023-04-29T06:33:45.361Z,10.44
2023-04-29T06:36:12.376Z,7.85
2023-04-29T06:38:41.869Z,8.55
2023-04-29T06:41:27.470Z,9.53
2023-04-29T06:44:12.883Z,9.16
2023-04-29T06:46:39.668Z,9.72
2023-04-29T06:49:25.254Z,9.04
2023-04-29T06:51:52.034Z,10.80
2023-04-29T06:54:18.728Z,9.06
2023-04-29T06:56:45.608Z,9.40
2023-04-29T06:59:12.813Z,9.20
2023-04-29T07:01:43.449Z,8.90
2023-04-29T07:04:12.135Z,8.73
2023-04-29T07:06:39.465Z,10.59
2023-04-29T07:09:06.830Z,10.82
2023-04-29T07:11:33.524Z,10.12
2023-04-29T07:14:00.231Z,10.58
2023-04-29T07:16:30.184Z,10.51
2023-04-29T07:18:57.228Z,9.59
2023-04-29T07:21:24.519Z,9.57
2023-04-29T07:23:51.342Z,10.79
2023-04-29T07:26:18.850Z,9.34
2023-04-29T07:28:46.302Z,9.82
2023-04-29T07:31:14.396Z,10.42
2023-04-29T07:33:41.388Z,8.57
2023-04-29T07:36:11.090Z,11.24
2023-04-29T07:38:38.038Z,11.21
2023-04-29T07:41:04.887Z,11.20
2023-04-29T07:43:32.171Z,11.26
2023-04-29T07:45:59.545Z,11.50
2023-04-29T07:48:26.404Z,10.94
2023-04-29T07:50:55.057Z,11.17
2023-04-29T07:53:21.980Z,11.26
2023-04-29T07:55:50.881Z,12.43
2023-04-29T07:58:19.103Z,13.88
2023-04-29T08:00:47.408Z,10.63
2023-04-29T08:03:14.595Z,12.26
2023-04-29T08:05:42.823Z,12.54
2023-04-29T08:08:13.786Z,12.08
2023-04-29T08:10:41.315Z,13.40
2023-04-29T08:13:09.293Z,11.32
2023-04-29T08:15:36.028Z,12.60
2023-04-29T08:18:02.892Z,11.24
2023-04-29T08:20:29.775Z,12.50
2023-04-29T08:22:59.643Z,12.03
2023-04-29T08:25:27.299Z,13.58
2023-04-29T08:27:54.036Z,13.59
2023-04-29T08:30:21.022Z,13.17
2023-04-29T08:32:48.136Z,12.80
2023-04-29T08:35:15.272Z,13.50
2023-04-29T08:37:42.045Z,13.03
2023-04-29T08:40:09.510Z,11.37
2023-04-29T08:42:37.736Z,13.82
2023-04-29T08:45:05.055Z,13.73
2023-04-29T08:47:33.407Z,14.65
2023-04-29T08:50:06.838Z,14.62
2023-04-29T08:52:34.318Z,12.44
2023-04-29T08:55:05.555Z,12.81
2023-04-29T08:57:40.001Z,12.43
2023-04-29T09:00:12.081Z,15.77
2023-04-29T09:02:51.498Z,15.55
2023-04-29T09:05:19.049Z,15.09
2023-04-29T09:07:47.000Z,16.37
2023-04-29T09:10:16.099Z,14.45
2023-04-29T09:12:42.848Z,13.85
2023-04-29T09:15:10.085Z,14.22
2023-04-29T09:17:44.642Z,12.86
2023-04-29T09:20:20.850Z,12.83
2023-04-29T09:22:52.241Z,12.47
2023-04-29T09:25:19.400Z,12.36
2023-04-29T09:27:46.368Z,12.25
2023-04-29T09:30:13.934Z,15.25
2023-04-29T09:32:41.141Z,17.85
2023-04-29T09:35:25.620Z,16.24
2023-04-29T09:37:56.333Z,19.07
2023-04-29T09:40:40.457Z,19.37
2023-04-29T09:43:15.890Z,16.81
2023-04-29T09:45:47.704Z,18.48
2023-04-29T09:48:15.916Z,15.69
2023-04-29T09:50:45.014Z,14.20
2023-04-29T09:53:28.038Z,13.98
2023-04-29T09:56:01.688Z,15.20
2023-04-29T09:58:37.481Z,14.55
2023-04-29T10:01:05.493Z,12.79
2023-04-29T10:03:38.642Z,13.50
2023-04-29T10:06:07.360Z,12.46
2023-04-29T10:08:35.265Z,12.96
2023-04-29T10:11:05.941Z,9.00
2023-04-29T10:13:38.689Z,9.61
2023-04-29T10:16:20.292Z,9.76
2023-04-29T10:18:55.786Z,10.79
2023-04-29T10:21:33.139Z,11.22
2023-04-29T10:24:02.572Z,11.04
2023-04-29T10:26:29.960Z,13.65
2023-04-29T10:28:57.729Z,20.22
2023-04-29T10:31:28.736Z,17.64
2023-04-29T10:33:59.195Z,19.18
2023-04-29T10:36:28.597Z,19.83
2023-04-29T10:38:59.680Z,18.17
2023-04-29T10:41:44.851Z,21.96
2023-04-29T10:44:11.818Z,20.98
2023-04-29T10:46:39.087Z,20.71
2023-04-29T10:49:07.195Z,16.76
2023-04-29T10:51:42.024Z,17.61
2023-04-29T10:54:12.872Z,19.63
2023-04-29T10:56:42.932Z,22.62
2023-04-29T10:59:17.765Z,20.82
2023-04-29T11:01:49.331Z,20.68
2023-04-29T11:04:16.932Z,21.77
2023-04-29T11:06:54.829Z,22.36
2023-04-29T11:09:24.499Z,19.28
2023-04-29T11:12:03.462Z,16.95
2023-04-29T11:14:36.557Z,17.33
2023-04-29T11:17:07.870Z,21.92
2023-04-29T11:19:36.852Z,20.93
2023-04-29T11:22:09.261Z,20.08
2023-04-29T11:24:39.222Z,15.79
2023-04-29T11:27:06.055Z,14.87
2023-04-29T11:29:33.457Z,13.80
2023-04-29T11:32:02.213Z,14.25
2023-04-29T11:34:29.067Z,13.12
2023-04-29T11:36:55.986Z,13.78
2023-04-29T11:39:23.464Z,18.52
2023-04-29T11:41:52.688Z,19.55
2023-04-29T11:44:25.422Z,19.84
2023-04-29T11:46:52.285Z,15.18
2023-04-29T11:49:20.565Z,15.23
2023-04-29T11:51:47.312Z,18.72
2023-04-29T11:54:14.504Z,19.47
2023-04-29T11:56:41.908Z,20.98
2023-04-29T11:59:09.226Z,18.21
2023-04-29T12:01:36.604Z,13.08
2023-04-29T12:04:06.241Z,12.45
2023-04-29T12:06:33.507Z,15.21
2023-04-29T12:09:01.237Z,15.98
2023-04-29T12:11:29.079Z,19.08
2023-04-29T12:13:57.984Z,17.47
2023-04-29T12:16:26.038Z,13.61
2023-04-29T12:18:53.764Z,17.39
2023-04-29T12:21:22.429Z,17.31
2023-04-29T12:23:49.190Z,16.50
2023-04-29T12:26:17.436Z,17.20
2023-04-29T12:28:44.210Z,17.62
2023-04-29T12:31:14.116Z,15.50
2023-04-29T12:33:46.394Z,17.91
2023-04-29T12:36:21.586Z,16.98
2023-04-29T12:38:49.316Z,18.86
2023-04-29T12:41:17.435Z,16.58
2023-04-29T12:43:44.716Z,14.38
2023-04-29T12:46:14.868Z,13.05
2023-04-29T12:48:44.021Z,13.65
2023-04-29T12:51:11.756Z,13.78
2023-04-29T12:53:39.230Z,15.64
2023-04-29T12:56:06.756Z,15.75
2023-04-29T12:58:36.936Z,16.70
2023-04-29T13:01:03.756Z,16.05
2023-04-29T13:03:30.820Z,15.18
2023-04-29T13:05:58.148Z,16.13
2023-04-29T13:08:25.281Z,13.72
2023-04-29T13:10:52.056Z,14.52
2023-04-29T13:13:18.808Z,14.12
2023-04-29T13:15:46.331Z,12.90
2023-04-29T13:18:13.227Z,12.45
2023-04-29T13:20:42.084Z,13.27
2023-04-29T13:23:10.361Z,11.95
2023-04-29T13:25:37.152Z,12.03
2023-04-29T13:28:07.790Z,12.67
2023-04-29T13:30:34.816Z,16.14
2023-04-29T13:33:09.861Z,16.45
2023-04-29T13:35:40.520Z,16.47
2023-04-29T13:38:08.165Z,18.00
2023-04-29T13:40:39.348Z,17.60
2023-04-29T13:43:13.825Z,16.77
2023-04-29T13:45:45.656Z,16.69
2023-04-29T13:48:32.468Z,14.95
2023-04-29T13:56:53.320Z,13.01
2023-04-29T14:01:55.310Z,15.28
2023-04-29T14:04:05.358Z,16.25
2023-04-29T14:06:32.631Z,14.01
2023-04-29T14:09:01.098Z,13.73
2023-04-29T14:11:28.992Z,11.90
2023-04-29T14:13:56.218Z,13.33
2023-04-29T14:16:23.094Z,11.83
2023-04-29T14:18:49.992Z,14.59
2023-04-29T14:21:16.933Z,15.75
2023-04-29T14:23:43.904Z,16.47
2023-04-29T14:26:27.042Z,16.18
2023-04-29T14:29:00.246Z,14.05
2023-04-29T14:31:29.312Z,15.23
2023-04-29T14:33:59.748Z,12.69
2023-04-29T14:36:27.135Z,13.57
2023-04-29T14:38:54.141Z,16.24
2023-04-29T14:41:22.088Z,14.86
2023-04-29T14:43:48.946Z,12.46
2023-04-29T14:46:16.748Z,14.86
2023-04-29T14:48:44.116Z,14.39
2023-04-29T14:51:11.901Z,15.69
2023-04-29T14:53:39.142Z,15.76
2023-04-29T14:56:07.344Z,16.73
2023-04-29T14:58:34.081Z,14.15
2023-04-29T15:01:00.829Z,14.87
2023-04-29T15:03:27.840Z,14.45
2023-04-29T15:05:55.124Z,13.17
2023-04-29T15:08:22.069Z,14.40
2023-04-29T15:10:50.163Z,14.45
2023-04-29T15:13:17.085Z,13.64
2023-04-29T15:15:43.869Z,11.95
2023-04-29T15:18:10.956Z,12.30
2023-04-29T15:20:38.216Z,12.35
2023-04-29T15:23:05.777Z,12.60
2023-04-29T15:25:36.247Z,10.86
2023-04-29T15:28:03.986Z,10.63
2023-04-29T15:30:30.997Z,11.75
2023-04-29T15:32:58.028Z,11.91
2023-04-29T15:35:24.836Z,12.06
2023-04-29T15:37:51.805Z,13.55
2023-04-29T15:40:18.561Z,13.47
2023-04-29T15:42:45.814Z,13.13
2023-04-29T15:45:13.047Z,10.83
2023-04-29T15:47:39.843Z,12.48
2023-04-29T15:50:07.999Z,12.86
2023-04-29T15:52:34.758Z,12.80
2023-04-29T15:55:01.447Z,10.15
2023-04-29T15:57:28.219Z,11.08
2023-04-29T15:59:55.235Z,11.92
2023-04-29T16:02:22.303Z,12.46
2023-04-29T16:04:49.318Z,10.83
2023-04-29T16:07:17.354Z,11.93
2023-04-29T16:09:44.495Z,11.63
2023-04-29T16:12:13.118Z,13.15
2023-04-29T16:14:39.959Z,12.86
2023-04-29T16:17:07.185Z,13.40
2023-04-29T16:19:36.841Z,12.89
2023-04-29T16:22:04.516Z,10.76
2023-04-29T16:24:31.326Z,10.19
2023-04-29T16:26:59.377Z,9.18
2023-04-29T16:29:26.549Z,10.22
2023-04-29T16:31:53.689Z,8.90
2023-04-29T16:34:20.599Z,9.77
2023-04-29T16:36:47.621Z,10.42
2023-04-29T16:39:14.419Z,9.63
2023-04-29T16:41:41.453Z,10.16
2023-04-29T16:44:09.012Z,10.86
2023-04-29T16:46:36.427Z,9.63
2023-04-29T16:49:03.379Z,9.36
2023-04-29T16:51:30.382Z,10.53
2023-04-29T16:53:57.441Z,10.03
2023-04-29T16:56:24.242Z,10.51
2023-04-29T16:58:51.549Z,10.83
2023-04-29T17:01:19.730Z,9.71
2023-04-29T17:03:47.943Z,10.81
2023-04-29T17:06:16.068Z,11.06
2023-04-29T17:08:44.269Z,10.28
2023-04-29T17:11:11.251Z,9.28
2023-04-29T17:13:38.135Z,10.13
2023-04-29T17:16:05.638Z,9.39
2023-04-29T17:18:32.383Z,9.61
2023-04-29T17:20:59.605Z,9.35
2023-04-29T17:23:26.313Z,9.02
2023-04-29T17:25:54.707Z,8.15
2023-04-29T17:28:21.776Z,9.03
2023-04-29T17:30:48.586Z,9.96
2023-04-29T17:33:17.470Z,9.26
2023-04-29T17:35:45.654Z,9.16
2023-04-29T17:38:12.480Z,9.00
2023-04-29T17:40:39.755Z,8.00
2023-04-29T17:43:06.732Z,9.25
2023-04-29T17:45:33.687Z,8.56
2023-04-29T17:48:00.953Z,8.10
2023-04-29T17:50:28.003Z,8.29
2023-04-29T17:52:54.742Z,8.69
2023-04-29T17:55:21.759Z,8.71
2023-04-29T17:57:48.885Z,8.54
2023-04-29T18:00:16.163Z,8.40
2023-04-29T18:02:43.296Z,8.59
2023-04-29T18:05:10.301Z,8.27
2023-04-29T18:07:37.394Z,8.11
2023-04-29T18:10:05.916Z,8.70
2023-04-29T18:12:32.605Z,8.74
2023-04-29T18:15:01.306Z,8.93
2023-04-29T18:17:28.471Z,8.77
2023-04-29T18:19:55.535Z,8.62
2023-04-29T18:22:22.460Z,8.72
2023-04-29T18:24:49.761Z,9.55
2023-04-29T18:27:17.510Z,7.93
2023-04-29T18:29:47.645Z,8.96
2023-04-29T18:32:14.770Z,8.92
2023-04-29T18:34:41.508Z,8.95
2023-04-29T18:37:08.747Z,8.24
2023-04-29T18:39:35.553Z,8.39
2023-04-29T18:42:04.590Z,8.74
2023-04-29T18:44:31.629Z,8.66
2023-04-29T18:46:58.886Z,8.05
2023-04-29T18:49:25.680Z,8.62
2023-04-29T18:51:52.675Z,7.59
2023-04-29T18:54:19.961Z,7.49
2023-04-29T18:56:48.659Z,7.71
2023-04-29T18:59:19.711Z,7.92
2023-04-29T19:01:48.220Z,6.92
2023-04-29T19:04:15.704Z,7.71
2023-04-29T19:06:42.963Z,8.06
2023-04-29T19:09:11.368Z,7.94
2023-04-29T19:11:38.153Z,8.46
2023-04-29T19:14:04.903Z,7.67
2023-04-29T19:16:32.146Z,8.39
2023-04-29T19:18:59.971Z,7.77
2023-04-29T19:21:27.201Z,8.41
2023-04-29T19:23:54.225Z,8.07
2023-04-29T19:26:21.063Z,7.68
2023-04-29T19:28:48.393Z,8.09
2023-04-29T19:31:15.563Z,8.08
2023-04-29T19:33:43.045Z,7.60
2023-04-29T19:36:12.786Z,7.60
2023-04-29T19:38:39.574Z,7.64
2023-04-29T19:41:06.298Z,7.74
2023-04-29T19:43:33.736Z,6.52
2023-04-29T19:46:00.609Z,6.84
2023-04-29T19:48:27.332Z,7.60
2023-04-29T19:50:54.393Z,8.52
2023-04-29T19:53:21.384Z,8.65
2023-04-29T19:55:50.591Z,8.48
2023-04-29T19:58:18.762Z,6.82
2023-04-29T20:00:45.897Z,8.13
2023-04-29T20:03:12.894Z,8.70
2023-04-29T20:05:41.324Z,6.89
2023-04-29T20:08:08.229Z,7.92
2023-04-29T20:10:35.051Z,8.20
2023-04-29T20:13:02.481Z,8.07
2023-04-29T20:15:29.630Z,7.30
2023-04-29T20:17:56.480Z,8.55
2023-04-29T20:20:24.701Z,7.89
2023-04-29T20:22:51.728Z,8.63
2023-04-29T20:25:19.108Z,9.03
2023-04-29T20:27:46.121Z,9.20
2023-04-29T20:30:12.957Z,9.03
2023-04-29T20:32:40.300Z,8.45
2023-04-29T20:35:08.263Z,8.47
2023-04-29T20:37:35.626Z,7.65
2023-04-29T20:40:02.838Z,8.63
2023-04-29T20:42:29.722Z,8.68
2023-04-29T20:44:56.818Z,8.56
2023-04-29T20:47:24.096Z,8.45
2023-04-29T20:49:50.954Z,8.69
2023-04-29T20:52:17.950Z,8.17
2023-04-29T20:54:45.134Z,8.54
2023-04-29T20:57:11.868Z,8.56
2023-04-29T20:59:39.115Z,8.18
2023-04-29T21:02:05.801Z,8.26
2023-04-29T21:04:33.027Z,7.95
2023-04-29T21:07:03.399Z,8.48
2023-04-29T21:09:30.272Z,8.41
2023-04-29T21:11:59.424Z,8.16
2023-04-29T21:14:27.358Z,8.24
2023-04-29T21:16:54.746Z,8.32
2023-04-29T21:19:21.682Z,8.64
2023-04-29T21:21:48.407Z,8.59
2023-04-29T21:24:15.484Z,8.08
2023-04-29T21:26:42.794Z,7.46
2023-04-29T21:29:09.804Z,7.62
2023-04-29T21:31:36.629Z,7.80
2023-04-29T21:34:03.496Z,7.38
2023-04-29T21:36:32.090Z,7.57
2023-04-29T21:38:58.886Z,7.96
2023-04-29T21:41:28.325Z,8.18
2023-04-29T21:43:58.417Z,8.39
2023-04-29T21:46:27.704Z,8.02
2023-04-29T21:48:57.464Z,7.95
2023-04-29T21:51:24.601Z,7.57
2023-04-29T21:53:51.478Z,7.81
2023-04-29T21:56:18.727Z,7.90
2023-04-29T21:58:45.913Z,7.72
2023-04-29T22:01:48.701Z,7.82
2023-04-29T22:04:19.580Z,7.76
2023-04-29T22:06:46.432Z,7.93
2023-04-29T22:09:13.323Z,8.31
2023-04-29T22:11:40.054Z,8.43
2023-04-29T22:14:06.832Z,8.65
2023-04-29T22:16:35.889Z,6.46
2023-04-29T22:19:03.638Z,6.88
2023-04-29T22:21:31.983Z,8.37
2023-04-29T22:23:59.028Z,8.26
2023-04-29T22:26:26.016Z,7.98
2023-04-29T22:28:53.017Z,7.72
2023-04-29T22:31:20.441Z,7.87
2023-04-29T22:33:47.596Z,7.94
2023-04-29T22:36:14.325Z,7.82
2023-04-29T22:38:41.614Z,7.82
2023-04-29T22:41:09.962Z,7.27
2023-04-29T22:43:36.656Z,7.47
2023-04-29T22:46:04.114Z,7.58
2023-04-29T22:48:31.290Z,7.41
2023-04-29T22:51:04.080Z,7.42
2023-04-29T22:53:30.963Z,7.24
2023-04-29T22:55:59.350Z,7.40
2023-04-29T22:58:26.491Z,7.89
2023-04-29T23:00:56.866Z,7.28
2023-04-29T23:03:24.475Z,8.33
2023-04-29T23:05:51.546Z,7.69
2023-04-29T23:08:18.289Z,7.44
2023-04-29T23:10:51.637Z,7.67
2023-04-29T23:13:19.123Z,8.01
2023-04-29T23:15:46.286Z,8.68
2023-04-29T23:18:13.304Z,5.97
2023-04-29T23:20:40.331Z,6.97
2023-04-29T23:23:07.121Z,6.97
2023-04-29T23:25:34.603Z,7.10
2023-04-29T23:28:01.552Z,7.09
2023-04-29T23:30:28.218Z,7.12
2023-04-29T23:32:55.029Z,7.25
2023-04-29T23:35:22.055Z,7.42
2023-04-29T23:37:48.812Z,7.68
2023-04-29T23:40:16.325Z,7.63
2023-04-29T23:42:43.190Z,7.61
2023-04-29T23:45:10.350Z,7.49
2023-04-29T23:47:37.288Z,7.64
2023-04-29T23:50:04.790Z,7.42
2023-04-29T23:52:31.744Z,7.27
2023-04-29T23:54:58.506Z,7.15
2023-04-29T23:57:25.244Z,7.24
2023-04-29T23:59:55.313Z,7.41
